createdAt,value
2018-03-29T00:00:15.330Z,6.4
2018-03-29T00:01:15.050Z,6.37
2018-03-29T00:02:15.033Z,6.25
2018-03-29T00:03:15.278Z,6.4
2018-03-29T00:04:15.263Z,6.28
2018-03-29T00:05:14.995Z,6.39
2018-03-29T00:06:14.985Z,6.46
2018-03-29T00:07:15.224Z,6.47
2018-03-29T00:08:15.218Z,6.47
2018-03-29T00:09:15.199Z,6.46
2018-03-29T00:10:14.935Z,6.51
2018-03-29T00:11:14.914Z,6.44
2018-03-29T00:12:15.165Z,6.47
2018-03-29T00:13:14.888Z,6.54
2018-03-29T00:14:15.130Z,6.54
2018-03-29T00:15:14.868Z,6.43
2018-03-29T00:16:15.113Z,6.49
2018-03-29T00:17:14.836Z,6.54
2018-03-29T00:18:14.823Z,6.52
2018-03-29T00:19:15.070Z,6.6
2018-03-29T00:20:14.539Z,6.52
2018-03-29T00:21:15.042Z,6.47
2018-03-29T00:22:14.766Z,6.47
2018-03-29T00:23:15.019Z,6.58
2018-03-29T00:24:15.092Z,6.57
2018-03-29T00:25:14.754Z,6.55
2018-03-29T00:26:15.105Z,6.49
2018-03-29T00:27:14.793Z,6.54
2018-03-29T00:28:14.992Z,6.46
2018-03-29T00:29:14.782Z,6.43
2018-03-29T00:30:14.714Z,6.54
2018-03-29T00:31:14.392Z,6.43
2018-03-29T00:32:14.646Z,6.43
2018-03-29T00:33:14.882Z,6.4
2018-03-29T00:34:14.610Z,6.47
2018-03-29T00:35:14.598Z,6.51
2018-03-29T00:36:14.325Z,6.43
2018-03-29T00:37:14.836Z,6.4
2018-03-29T00:38:14.814Z,6.4
2018-03-29T00:39:14.548Z,6.4
2018-03-29T00:40:14.790Z,6.39
2018-03-29T00:41:14.516Z,6.39
2018-03-29T00:42:14.509Z,6.36
2018-03-29T00:43:14.236Z,6.37
2018-03-29T00:44:14.749Z,6.39
2018-03-29T00:45:14.721Z,6.4
2018-03-29T00:46:14.706Z,6.36
2018-03-29T00:47:14.178Z,6.4
2018-03-29T00:48:14.684Z,6.4
2018-03-29T00:49:14.680Z,6.24
2018-03-29T00:50:14.660Z,6.34
2018-03-29T00:51:14.385Z,6.34
2018-03-29T00:52:14.632Z,6.39
2018-03-29T00:53:14.617Z,6.29
2018-03-29T00:54:14.089Z,6.33
2018-03-29T00:55:14.331Z,6.26
2018-03-29T00:56:14.575Z,6.36
2018-03-29T00:57:14.305Z,6.33
2018-03-29T00:58:14.549Z,6.28
2018-03-29T00:59:14.287Z,6.26
2018-03-29T01:00:14.008Z,6.28
2018-03-29T01:01:14.263Z,6.21
2018-03-29T01:02:14.239Z,6.28
2018-03-29T01:03:14.224Z,6.26
2018-03-29T01:04:14.475Z,6.26
2018-03-29T01:05:14.202Z,6.31
2018-03-29T01:06:14.444Z,6.26
2018-03-29T01:07:14.433Z,6.17
2018-03-29T01:08:14.160Z,6.28
2018-03-29T01:09:14.151Z,6.25
2018-03-29T01:10:14.134Z,6.18
2018-03-29T01:11:14.117Z,6.1
2018-03-29T01:12:14.105Z,6.1
2018-03-29T01:13:14.093Z,6.13
2018-03-29T01:14:13.821Z,6.14
2018-03-29T01:15:14.322Z,6.1
2018-03-29T01:16:14.312Z,6.05
2018-03-29T01:17:14.037Z,6.15
2018-03-29T01:18:14.033Z,6.06
2018-03-29T01:19:14.013Z,6.06
2018-03-29T01:20:14.284Z,6.03
2018-03-29T01:21:14.025Z,6.05
2018-03-29T01:22:14.304Z,6.03
2018-03-29T01:23:14.004Z,6.07
2018-03-29T01:24:14.354Z,6.05
2018-03-29T01:25:14.301Z,5.98
2018-03-29T01:26:14.361Z,6
2018-03-29T01:27:14.038Z,6.05
2018-03-29T01:28:14.014Z,5.98
2018-03-29T01:29:14.267Z,5.99
2018-03-29T01:30:14.261Z,6.06
2018-03-29T01:31:13.963Z,5.88
2018-03-29T01:32:13.915Z,5.98
2018-03-29T01:33:13.976Z,5.95
2018-03-29T01:34:13.939Z,5.92
2018-03-29T01:35:14.207Z,5.89
2018-03-29T01:36:13.883Z,5.88
2018-03-29T01:37:13.867Z,5.84
2018-03-29T01:38:13.853Z,5.84
2018-03-29T01:39:13.808Z,5.84
2018-03-29T01:40:14.097Z,5.87
2018-03-29T01:41:14.102Z,5.81
2018-03-29T01:42:13.516Z,5.82
2018-03-29T01:43:13.788Z,5.75
2018-03-29T01:44:13.446Z,5.72
2018-03-29T01:45:13.691Z,5.69
2018-03-29T01:46:13.663Z,5.63
2018-03-29T01:47:13.952Z,5.64
2018-03-29T01:48:13.677Z,5.62
2018-03-29T01:49:13.935Z,5.54
2018-03-29T01:50:13.949Z,5.6
2018-03-29T01:51:13.579Z,5.44
2018-03-29T01:52:13.910Z,5.44
2018-03-29T01:53:13.649Z,5.48
2018-03-29T01:54:13.863Z,5.41
2018-03-29T01:55:13.521Z,5.26
2018-03-29T01:56:13.791Z,5.27
2018-03-29T01:57:13.818Z,5.18
2018-03-29T01:58:13.284Z,5.09
2018-03-29T01:59:13.479Z,5.12
2018-03-29T02:00:13.466Z,5.02
2018-03-29T02:01:13.732Z,4.98
2018-03-29T02:02:13.710Z,4.92
2018-03-29T02:03:13.472Z,4.92
2018-03-29T02:04:13.476Z,4.9
2018-03-29T02:05:13.430Z,4.85
2018-03-29T02:06:13.683Z,4.69
2018-03-29T02:07:13.632Z,4.71
2018-03-29T02:08:13.595Z,4.58
2018-03-29T02:09:13.579Z,4.5
2018-03-29T02:10:13.567Z,4.47
2018-03-29T02:11:13.297Z,4.47
2018-03-29T02:12:13.542Z,4.47
2018-03-29T02:13:13.547Z,4.33
2018-03-29T02:14:13.259Z,4.35
2018-03-29T02:15:12.978Z,4.35
2018-03-29T02:16:13.220Z,4.3
2018-03-29T02:17:13.476Z,4.3
2018-03-29T02:18:13.201Z,4.22
2018-03-29T02:19:13.184Z,4.28
2018-03-29T02:20:13.420Z,4.14
2018-03-29T02:21:12.890Z,4.18
2018-03-29T02:22:13.136Z,4.24
2018-03-29T02:23:13.121Z,4.28
2018-03-29T02:24:13.111Z,4.21
2018-03-29T02:25:12.827Z,4.3
2018-03-29T02:26:13.328Z,4.21
2018-03-29T02:27:13.340Z,4.22
2018-03-29T02:28:13.046Z,4.21
2018-03-29T02:29:13.286Z,4.12
2018-03-29T02:30:13.284Z,4.17
2018-03-29T02:31:13.001Z,4.14
2018-03-29T02:32:12.987Z,4.17
2018-03-29T02:33:13.227Z,4.17
2018-03-29T02:34:13.264Z,4.17
2018-03-29T02:35:13.203Z,4.17
2018-03-29T02:36:12.921Z,4.14
2018-03-29T02:37:13.165Z,4.1
2018-03-29T02:38:13.147Z,4.1
2018-03-29T02:39:12.878Z,4.08
2018-03-29T02:40:13.134Z,4.08
2018-03-29T02:41:12.841Z,4.14
2018-03-29T02:42:12.895Z,4.11
2018-03-29T02:43:13.076Z,3.96
2018-03-29T02:44:13.052Z,3.97
2018-03-29T02:45:13.048Z,4.04
2018-03-29T02:46:13.025Z,3.92
2018-03-29T02:47:12.749Z,3.99
2018-03-29T02:48:12.995Z,4
2018-03-29T02:49:12.980Z,3.93
2018-03-29T02:50:12.964Z,3.99
2018-03-29T02:51:12.693Z,3.94
2018-03-29T02:52:12.930Z,3.97
2018-03-29T02:53:12.919Z,3.97
2018-03-29T02:54:12.918Z,3.86
2018-03-29T02:55:12.941Z,3.86
2018-03-29T02:56:12.611Z,3.85
2018-03-29T02:57:12.861Z,3.85
2018-03-29T02:58:12.583Z,3.84
2018-03-29T02:59:12.819Z,3.84
2018-03-29T03:00:12.552Z,3.84
2018-03-29T03:01:12.532Z,3.84
2018-03-29T03:02:12.259Z,3.76
2018-03-29T03:03:12.764Z,3.79
2018-03-29T03:04:12.493Z,3.79
2018-03-29T03:05:12.499Z,3.81
2018-03-29T03:06:12.718Z,3.79
2018-03-29T03:07:12.704Z,3.72
2018-03-29T03:08:12.428Z,3.76
2018-03-29T03:09:12.668Z,3.82
2018-03-29T03:10:12.720Z,3.78
2018-03-29T03:11:12.652Z,3.75
2018-03-29T03:12:12.108Z,3.82
2018-03-29T03:13:12.350Z,3.76
2018-03-29T03:14:12.334Z,3.81
2018-03-29T03:15:12.318Z,3.78
2018-03-29T03:16:12.301Z,3.67
2018-03-29T03:17:12.029Z,3.69
2018-03-29T03:18:12.528Z,3.76
2018-03-29T03:19:12.527Z,3.72
2018-03-29T03:20:12.244Z,3.74
2018-03-29T03:21:12.505Z,3.63
2018-03-29T03:22:12.213Z,3.64
2018-03-29T03:23:12.194Z,3.6
2018-03-29T03:24:12.443Z,3.58
2018-03-29T03:25:12.418Z,3.53
2018-03-29T03:26:12.411Z,3.61
2018-03-29T03:27:12.389Z,3.6
2018-03-29T03:28:12.373Z,3.6
2018-03-29T03:29:12.366Z,3.54
2018-03-29T03:30:12.097Z,3.51
2018-03-29T03:31:12.339Z,3.57
2018-03-29T03:32:12.318Z,3.56
2018-03-29T03:33:12.040Z,3.49
2018-03-29T03:34:12.026Z,3.48
2018-03-29T03:35:12.271Z,3.45
2018-03-29T03:36:12.251Z,3.51
2018-03-29T03:37:12.253Z,3.42
2018-03-29T03:38:12.224Z,3.45
2018-03-29T03:39:12.208Z,3.32
2018-03-29T03:40:11.935Z,3.35
2018-03-29T03:41:11.915Z,3.29
2018-03-29T03:42:12.165Z,3.29
2018-03-29T03:43:12.138Z,3.21
2018-03-29T03:44:12.123Z,3.19
2018-03-29T03:45:11.859Z,3.2
2018-03-29T03:46:11.576Z,3.2
2018-03-29T03:47:11.816Z,3.19
2018-03-29T03:48:11.806Z,3.2
2018-03-29T03:49:11.793Z,3.26
2018-03-29T03:50:11.774Z,3.16
2018-03-29T03:51:12.012Z,3.21
2018-03-29T03:52:11.742Z,3.21
2018-03-29T03:53:12.037Z,3.17
2018-03-29T03:54:11.450Z,3.21
2018-03-29T03:55:11.437Z,3.16
2018-03-29T03:56:11.942Z,3.14
2018-03-29T03:57:11.662Z,3.19
2018-03-29T03:58:11.912Z,3.14
2018-03-29T03:59:11.888Z,3.17
2018-03-29T04:00:11.623Z,3.09
2018-03-29T04:01:11.853Z,3.16
2018-03-29T04:02:11.331Z,3.14
2018-03-29T04:03:11.568Z,3.11
2018-03-29T04:04:11.811Z,3.08
2018-03-29T04:05:11.799Z,3.09
2018-03-29T04:06:11.783Z,3.08
2018-03-29T04:07:11.761Z,3.03
2018-03-29T04:08:11.752Z,3.02
2018-03-29T04:09:11.474Z,3.06
2018-03-29T04:10:11.716Z,2.96
2018-03-29T04:11:11.702Z,3.08
2018-03-29T04:12:11.683Z,2.99
2018-03-29T04:13:11.669Z,2.95
2018-03-29T04:14:11.870Z,2.98
2018-03-29T04:15:11.119Z,2.96
2018-03-29T04:16:11.617Z,2.91
2018-03-29T04:17:11.351Z,2.88
2018-03-29T04:18:11.587Z,2.93
2018-03-29T04:19:11.574Z,3.03
2018-03-29T04:20:11.556Z,2.9
2018-03-29T04:21:11.548Z,2.88
2018-03-29T04:22:11.273Z,2.9
2018-03-29T04:23:10.993Z,2.88
2018-03-29T04:24:11.491Z,2.88
2018-03-29T04:25:11.220Z,2.95
2018-03-29T04:26:11.468Z,2.91
2018-03-29T04:27:11.191Z,2.95
2018-03-29T04:28:11.433Z,2.93
2018-03-29T04:29:11.413Z,2.9
2018-03-29T04:30:11.395Z,2.93
2018-03-29T04:31:11.131Z,2.83
2018-03-29T04:32:11.369Z,2.88
2018-03-29T04:33:11.345Z,2.85
2018-03-29T04:34:11.331Z,2.93
2018-03-29T04:35:11.067Z,2.91
2018-03-29T04:36:10.787Z,2.93
2018-03-29T04:37:11.026Z,2.87
2018-03-29T04:38:10.752Z,2.91
2018-03-29T04:39:11.254Z,2.84
2018-03-29T04:40:10.992Z,2.77
2018-03-29T04:41:10.963Z,2.8
2018-03-29T04:42:11.201Z,2.85
2018-03-29T04:43:10.928Z,2.78
2018-03-29T04:44:11.174Z,2.73
2018-03-29T04:45:10.900Z,2.7
2018-03-29T04:46:11.147Z,2.77
2018-03-29T04:47:11.186Z,2.66
2018-03-29T04:48:10.853Z,2.66
2018-03-29T04:49:11.164Z,2.63
2018-03-29T04:50:10.559Z,2.62
2018-03-29T04:51:10.800Z,2.59
2018-03-29T04:52:10.791Z,2.65
2018-03-29T04:53:11.035Z,2.65
2018-03-29T04:54:10.755Z,2.63
2018-03-29T04:55:10.997Z,2.55
2018-03-29T04:56:10.980Z,2.63
2018-03-29T04:57:10.705Z,2.67
2018-03-29T04:58:10.432Z,2.69
2018-03-29T04:59:10.674Z,2.63
2018-03-29T05:00:10.659Z,2.67
2018-03-29T05:01:10.903Z,2.69
2018-03-29T05:02:10.630Z,2.66
2018-03-29T05:03:10.870Z,2.63
2018-03-29T05:04:10.333Z,2.66
2018-03-29T05:05:10.835Z,2.65
2018-03-29T05:06:10.823Z,2.7
2018-03-29T05:07:10.541Z,2.72
2018-03-29T05:08:10.273Z,2.6
2018-03-29T05:09:10.516Z,2.7
2018-03-29T05:10:10.235Z,2.72
2018-03-29T05:11:10.494Z,2.72
2018-03-29T05:12:10.725Z,2.67
2018-03-29T05:13:10.809Z,2.73
2018-03-29T05:14:10.439Z,2.66
2018-03-29T05:15:10.673Z,2.7
2018-03-29T05:16:10.400Z,2.67
2018-03-29T05:17:10.392Z,2.69
2018-03-29T05:18:10.363Z,2.63
2018-03-29T05:19:10.607Z,2.65
2018-03-29T05:20:10.336Z,2.63
2018-03-29T05:21:10.315Z,2.7
2018-03-29T05:22:10.299Z,2.7
2018-03-29T05:23:10.285Z,2.62
2018-03-29T05:24:10.532Z,2.65
2018-03-29T05:25:10.250Z,2.59
2018-03-29T05:26:10.233Z,2.59
2018-03-29T05:27:10.217Z,2.59
2018-03-29T05:28:09.943Z,2.62
2018-03-29T05:29:10.445Z,2.6
2018-03-29T05:30:10.178Z,2.63
2018-03-29T05:31:10.408Z,2.69
2018-03-29T05:32:09.875Z,2.62
2018-03-29T05:33:10.376Z,2.62
2018-03-29T05:34:10.109Z,2.65
2018-03-29T05:35:10.088Z,2.54
2018-03-29T05:36:10.377Z,2.58
2018-03-29T05:37:10.054Z,2.55
2018-03-29T05:38:10.036Z,2.54
2018-03-29T05:39:10.282Z,2.6
2018-03-29T05:40:10.341Z,2.59
2018-03-29T05:41:09.987Z,2.58
2018-03-29T05:42:09.976Z,2.58
2018-03-29T05:43:09.969Z,2.6
2018-03-29T05:44:09.942Z,2.58
2018-03-29T05:45:09.921Z,2.58
2018-03-29T05:46:10.163Z,2.54
2018-03-29T05:47:10.149Z,2.59
2018-03-29T05:48:09.875Z,2.59
2018-03-29T05:49:09.876Z,2.54
2018-03-29T05:50:09.839Z,2.55
2018-03-29T05:51:09.833Z,2.54
2018-03-29T05:52:09.819Z,2.55
2018-03-29T05:53:09.789Z,2.52
2018-03-29T05:54:10.035Z,2.58
2018-03-29T05:55:10.026Z,2.52
2018-03-29T05:56:09.742Z,2.51
2018-03-29T05:57:09.725Z,2.55
2018-03-29T05:58:09.708Z,2.51
2018-03-29T05:59:09.693Z,2.52
2018-03-29T06:00:09.675Z,2.59
2018-03-29T06:01:09.936Z,2.52
2018-03-29T06:02:09.942Z,2.54
2018-03-29T06:03:10.120Z,2.59
2018-03-29T06:04:09.607Z,2.58
2018-03-29T06:05:09.851Z,2.55
2018-03-29T06:06:09.574Z,2.52
2018-03-29T06:07:09.816Z,2.6
2018-03-29T06:08:09.808Z,2.55
2018-03-29T06:09:09.532Z,2.55
2018-03-29T06:10:09.773Z,2.55
2018-03-29T06:11:09.503Z,2.52
2018-03-29T06:12:09.747Z,2.55
2018-03-29T06:13:09.462Z,2.58
2018-03-29T06:14:09.443Z,2.59
2018-03-29T06:15:09.687Z,2.55
2018-03-29T06:16:09.412Z,2.6
2018-03-29T06:17:09.394Z,2.58
2018-03-29T06:18:09.120Z,2.62
2018-03-29T06:19:09.152Z,2.58
2018-03-29T06:20:09.346Z,2.63
2018-03-29T06:21:09.594Z,2.6
2018-03-29T06:22:09.569Z,2.66
2018-03-29T06:23:09.363Z,2.6
2018-03-29T06:24:09.549Z,2.73
2018-03-29T06:25:09.527Z,2.66
2018-03-29T06:26:08.990Z,2.69
2018-03-29T06:27:09.231Z,2.65
2018-03-29T06:28:09.217Z,2.8
2018-03-29T06:29:09.213Z,2.78
2018-03-29T06:30:09.513Z,2.83
2018-03-29T06:31:09.170Z,2.81
2018-03-29T06:32:09.151Z,2.83
2018-03-29T06:33:08.880Z,2.78
2018-03-29T06:34:09.376Z,2.81
2018-03-29T06:35:09.101Z,2.9
2018-03-29T06:36:09.342Z,2.85
2018-03-29T06:37:09.330Z,2.83
2018-03-29T06:38:09.314Z,2.78
2018-03-29T06:39:09.294Z,2.83
2018-03-29T06:40:09.021Z,2.96
2018-03-29T06:41:09.264Z,2.95
2018-03-29T06:42:09.245Z,2.8
2018-03-29T06:43:08.973Z,2.85
2018-03-29T06:44:09.214Z,2.85
2018-03-29T06:45:08.951Z,2.81
2018-03-29T06:46:09.179Z,2.88
2018-03-29T06:47:09.246Z,2.83
2018-03-29T06:48:08.634Z,2.84
2018-03-29T06:49:09.134Z,2.84
2018-03-29T06:50:08.857Z,2.85
2018-03-29T06:51:09.107Z,2.9
2018-03-29T06:52:09.093Z,2.91
2018-03-29T06:53:09.070Z,2.91
2018-03-29T06:54:08.797Z,3.01
2018-03-29T06:55:09.037Z,2.98
2018-03-29T06:56:08.504Z,3.02
2018-03-29T06:57:08.749Z,3.09
2018-03-29T06:58:08.472Z,3.09
2018-03-29T06:59:08.978Z,3.13
2018-03-29T07:00:08.697Z,3.14
2018-03-29T07:01:08.430Z,3.2
2018-03-29T07:02:08.668Z,3.21
2018-03-29T07:03:08.392Z,3.24
2018-03-29T07:04:08.895Z,3.21
2018-03-29T07:05:08.618Z,3.3
2018-03-29T07:06:08.601Z,3.42
2018-03-29T07:07:08.903Z,3.45
2018-03-29T07:08:08.827Z,3.45
2018-03-29T07:09:08.557Z,3.53
2018-03-29T07:10:08.797Z,3.42
2018-03-29T07:11:08.264Z,3.49
2018-03-29T07:12:08.520Z,3.56
2018-03-29T07:13:08.757Z,3.53
2018-03-29T07:14:08.478Z,3.53
2018-03-29T07:15:08.463Z,3.49
2018-03-29T07:16:08.704Z,3.53
2018-03-29T07:17:08.430Z,3.48
2018-03-29T07:18:08.154Z,3.48
2018-03-29T07:19:08.657Z,3.42
2018-03-29T07:20:08.382Z,3.42
2018-03-29T07:21:08.367Z,3.56
2018-03-29T07:22:08.607Z,3.48
2018-03-29T07:23:08.340Z,3.42
2018-03-29T07:24:08.579Z,3.42
2018-03-29T07:25:08.566Z,3.42
2018-03-29T07:26:08.293Z,3.37
2018-03-29T07:27:08.534Z,3.3
2018-03-29T07:28:08.526Z,3.39
2018-03-29T07:29:08.239Z,3.3
2018-03-29T07:30:08.483Z,3.39
2018-03-29T07:31:08.207Z,3.4
2018-03-29T07:32:08.197Z,3.42
2018-03-29T07:33:08.435Z,3.4
2018-03-29T07:34:08.422Z,3.46
2018-03-29T07:35:08.154Z,3.35
2018-03-29T07:36:08.391Z,3.34
2018-03-29T07:37:08.113Z,3.34
2018-03-29T07:38:07.844Z,3.37
2018-03-29T07:39:08.351Z,3.3
2018-03-29T07:40:07.811Z,3.34
2018-03-29T07:41:07.795Z,3.23
2018-03-29T07:42:08.040Z,3.37
2018-03-29T07:43:08.024Z,3.21
2018-03-29T07:44:08.009Z,3.23
2018-03-29T07:45:07.992Z,3.19
2018-03-29T07:46:07.975Z,3.34
2018-03-29T07:47:08.373Z,3.43
2018-03-29T07:48:08.200Z,3.45
2018-03-29T07:49:07.933Z,3.4
2018-03-29T07:50:08.176Z,3.49
2018-03-29T07:51:07.643Z,3.43
2018-03-29T07:52:07.882Z,3.45
2018-03-29T07:53:08.123Z,3.45
2018-03-29T07:54:07.596Z,3.42
2018-03-29T07:55:07.833Z,3.45
2018-03-29T07:56:07.822Z,3.48
2018-03-29T07:57:08.061Z,3.43
2018-03-29T07:58:08.050Z,3.46
2018-03-29T07:59:07.771Z,3.49
2018-03-29T08:00:07.756Z,3.57
2018-03-29T08:01:07.484Z,3.69
2018-03-29T08:02:07.987Z,3.76
2018-03-29T08:03:07.713Z,3.79
2018-03-29T08:04:07.957Z,3.99
2018-03-29T08:05:07.681Z,4.04
2018-03-29T08:06:07.685Z,3.96
2018-03-29T08:07:07.653Z,4.04
2018-03-29T08:08:07.644Z,4.14
2018-03-29T08:09:07.363Z,4.26
2018-03-29T08:10:07.869Z,4.3
2018-03-29T08:11:07.590Z,4.44
2018-03-29T08:12:07.317Z,4.48
2018-03-29T08:13:07.300Z,4.5
2018-03-29T08:14:07.805Z,4.57
2018-03-29T08:15:07.270Z,4.58
2018-03-29T08:16:07.515Z,4.58
2018-03-29T08:17:07.762Z,4.61
2018-03-29T08:18:07.488Z,4.76
2018-03-29T08:19:07.468Z,4.74
2018-03-29T08:20:07.455Z,4.79
2018-03-29T08:21:07.458Z,4.78
2018-03-29T08:22:07.166Z,4.72
2018-03-29T08:23:07.671Z,4.79
2018-03-29T08:24:07.392Z,4.97
2018-03-29T08:25:07.388Z,4.98
2018-03-29T08:26:07.367Z,4.94
2018-03-29T08:27:07.352Z,5.09
2018-03-29T08:28:07.600Z,5.15
2018-03-29T08:29:07.325Z,5.13
2018-03-29T08:30:07.307Z,5.28
2018-03-29T08:31:07.556Z,5.31
2018-03-29T08:32:07.280Z,5.49
2018-03-29T08:33:07.351Z,5.6
2018-03-29T08:34:07.255Z,5.62
2018-03-29T08:35:07.242Z,5.59
2018-03-29T08:36:07.229Z,5.44
2018-03-29T08:37:07.221Z,5.21
2018-03-29T08:38:06.938Z,5.13
2018-03-29T08:39:07.185Z,4.98
2018-03-29T08:40:07.168Z,4.85
2018-03-29T08:41:07.419Z,4.84
2018-03-29T08:42:07.139Z,4.69
2018-03-29T08:43:07.127Z,4.75
2018-03-29T08:44:07.369Z,4.68
2018-03-29T08:45:07.096Z,4.87
2018-03-29T08:46:07.090Z,5.06
2018-03-29T08:47:06.810Z,5.24
2018-03-29T08:48:07.197Z,5.46
2018-03-29T08:49:07.039Z,5.66
2018-03-29T08:50:06.767Z,5.69
2018-03-29T08:51:06.754Z,5.8
2018-03-29T08:52:06.998Z,5.88
2018-03-29T08:53:07.239Z,5.92
2018-03-29T08:54:07.230Z,5.77
2018-03-29T08:55:06.699Z,5.81
2018-03-29T08:56:06.941Z,5.81
2018-03-29T08:57:06.926Z,5.89
2018-03-29T08:58:06.914Z,5.99
2018-03-29T08:59:07.162Z,6.31
2018-03-29T09:00:06.889Z,6.37
2018-03-29T09:01:06.615Z,6.39
2018-03-29T09:02:06.600Z,6.33
2018-03-29T09:03:06.919Z,6.2
2018-03-29T09:04:07.095Z,6.07
2018-03-29T09:05:07.086Z,6.02
2018-03-29T09:06:07.063Z,5.81
2018-03-29T09:07:07.052Z,5.69
2018-03-29T09:08:06.780Z,5.59
2018-03-29T09:09:06.507Z,5.44
2018-03-29T09:10:06.754Z,5.42
2018-03-29T09:11:06.737Z,5.31
2018-03-29T09:12:06.466Z,5.16
2018-03-29T09:13:07.017Z,5.2
2018-03-29T09:14:06.696Z,5.21
2018-03-29T09:15:06.523Z,5.08
2018-03-29T09:16:07.078Z,5.12
2018-03-29T09:17:06.859Z,5.08
2018-03-29T09:18:06.765Z,5.06
2018-03-29T09:19:06.371Z,5.1
2018-03-29T09:20:06.872Z,5.15
2018-03-29T09:21:06.364Z,5.16
2018-03-29T09:22:06.329Z,5.24
2018-03-29T09:23:06.833Z,5.21
2018-03-29T09:24:06.561Z,5.23
2018-03-29T09:25:06.288Z,5.23
2018-03-29T09:26:06.530Z,5.2
2018-03-29T09:27:06.781Z,5.28
2018-03-29T09:28:06.508Z,5.21
2018-03-29T09:29:06.489Z,5.15
2018-03-29T09:30:06.734Z,5.18
2018-03-29T09:31:06.204Z,5.16
2018-03-29T09:32:06.445Z,5.23
2018-03-29T09:33:06.695Z,5.16
2018-03-29T09:34:06.687Z,5.18
2018-03-29T09:35:06.665Z,5.21
2018-03-29T09:36:06.397Z,5.3
2018-03-29T09:37:06.121Z,5.24
2018-03-29T09:38:06.627Z,5.24
2018-03-29T09:39:06.350Z,5.26
2018-03-29T09:40:06.598Z,5.23
2018-03-29T09:41:06.338Z,5.24
2018-03-29T09:42:06.319Z,5.3
2018-03-29T09:43:06.312Z,5.21
2018-03-29T09:44:06.543Z,5.2
2018-03-29T09:45:06.290Z,5.24
2018-03-29T09:46:06.256Z,5.16
2018-03-29T09:47:06.248Z,5.16
2018-03-29T09:48:06.502Z,5.3
2018-03-29T09:49:06.468Z,5.31
2018-03-29T09:50:06.462Z,5.37
2018-03-29T09:51:06.185Z,5.39
2018-03-29T09:52:06.431Z,5.45
2018-03-29T09:53:06.156Z,5.54
2018-03-29T09:54:05.884Z,5.48
2018-03-29T09:55:06.394Z,5.57
2018-03-29T09:56:06.375Z,5.82
2018-03-29T09:57:05.846Z,5.87
2018-03-29T09:58:06.125Z,5.89
2018-03-29T09:59:06.073Z,6.03
2018-03-29T10:00:06.063Z,6.15
2018-03-29T10:01:06.311Z,6.15
2018-03-29T10:02:06.032Z,6.24
2018-03-29T10:03:06.021Z,6.18
2018-03-29T10:04:06.008Z,6.25
2018-03-29T10:05:06.012Z,6.34
2018-03-29T10:06:05.721Z,6.42
2018-03-29T10:07:06.224Z,6.39
2018-03-29T10:08:05.957Z,6.39
2018-03-29T10:09:06.197Z,6.36
2018-03-29T10:10:05.930Z,6.31
2018-03-29T10:11:05.655Z,6.2
2018-03-29T10:12:06.157Z,6.1
2018-03-29T10:13:05.887Z,6.14
2018-03-29T10:14:05.616Z,6.06
2018-03-29T10:15:06.119Z,6.03
2018-03-29T10:16:05.865Z,5.99
2018-03-29T10:17:05.578Z,5.91
2018-03-29T10:18:05.564Z,5.92
2018-03-29T10:19:06.071Z,5.82
2018-03-29T10:20:05.538Z,5.98
2018-03-29T10:21:05.787Z,5.89
2018-03-29T10:22:05.775Z,5.89
2018-03-29T10:23:05.511Z,5.88
2018-03-29T10:24:05.807Z,5.89
2018-03-29T10:25:05.747Z,5.87
2018-03-29T10:26:05.771Z,5.8
2018-03-29T10:27:05.447Z,5.7
2018-03-29T10:28:05.952Z,5.69
2018-03-29T10:29:05.677Z,5.73
2018-03-29T10:30:05.962Z,5.73
2018-03-29T10:31:05.656Z,5.8
2018-03-29T10:32:05.891Z,5.78
2018-03-29T10:33:05.880Z,5.82
2018-03-29T10:34:05.614Z,6
2018-03-29T10:35:05.858Z,6.02
2018-03-29T10:36:05.838Z,6.07
2018-03-29T10:37:05.827Z,6.21
2018-03-29T10:38:05.299Z,6.31
2018-03-29T10:39:05.542Z,6.37
2018-03-29T10:40:05.795Z,6.47
2018-03-29T10:41:05.783Z,6.55
2018-03-29T10:42:05.509Z,6.58
2018-03-29T10:43:05.492Z,6.79
2018-03-29T10:44:05.487Z,6.94
2018-03-29T10:45:05.467Z,7.05
2018-03-29T10:46:05.714Z,7.15
2018-03-29T10:47:05.699Z,7.29
2018-03-29T10:48:05.692Z,7.36
2018-03-29T10:49:05.675Z,7.45
2018-03-29T10:50:05.665Z,7.52
2018-03-29T10:51:05.651Z,7.56
2018-03-29T10:52:05.641Z,7.54
2018-03-29T10:53:05.627Z,7.45
2018-03-29T10:54:05.359Z,7.39
2018-03-29T10:55:05.602Z,7.27
2018-03-29T10:56:05.330Z,7.04
2018-03-29T10:57:05.061Z,6.94
2018-03-29T10:58:05.104Z,6.8
2018-03-29T10:59:05.292Z,6.67
2018-03-29T11:00:05.280Z,6.55
2018-03-29T11:01:05.268Z,6.55
2018-03-29T11:02:05.519Z,6.54
2018-03-29T11:03:05.506Z,6.46
2018-03-29T11:04:05.508Z,6.55
2018-03-29T11:05:05.474Z,6.4
2018-03-29T11:06:04.946Z,6.31
2018-03-29T11:07:05.197Z,6.17
2018-03-29T11:08:05.182Z,6.1
2018-03-29T11:09:04.909Z,6.09
2018-03-29T11:10:05.156Z,5.99
2018-03-29T11:11:05.150Z,6.03
2018-03-29T11:12:05.410Z,6
2018-03-29T11:13:05.378Z,6.06
2018-03-29T11:14:05.107Z,6
2018-03-29T11:15:05.353Z,6.17
2018-03-29T11:16:05.080Z,6.21
2018-03-29T11:17:05.331Z,6.29
2018-03-29T11:18:05.058Z,6.29
2018-03-29T11:19:05.301Z,6.28
2018-03-29T11:20:05.304Z,6.24
2018-03-29T11:21:05.273Z,6.17
2018-03-29T11:22:04.750Z,6.25
2018-03-29T11:23:05.250Z,6.26
2018-03-29T11:24:05.247Z,6.33
2018-03-29T11:25:05.350Z,6.21
2018-03-29T11:26:04.954Z,6.29
2018-03-29T11:27:05.199Z,6.2
2018-03-29T11:28:04.929Z,6.2
2018-03-29T11:29:05.183Z,6.21
2018-03-29T11:30:04.900Z,6.28
2018-03-29T11:31:05.147Z,6.29
2018-03-29T11:32:04.880Z,6.28
2018-03-29T11:33:04.608Z,6.29
2018-03-29T11:34:04.593Z,6.31
2018-03-29T11:35:05.094Z,6.4
2018-03-29T11:36:05.092Z,6.37
2018-03-29T11:37:04.822Z,6.47
2018-03-29T11:38:04.540Z,6.55
2018-03-29T11:39:05.043Z,6.68
2018-03-29T11:40:04.516Z,6.64
2018-03-29T11:41:04.504Z,6.79
2018-03-29T11:42:05.007Z,6.8
2018-03-29T11:43:04.479Z,6.86
2018-03-29T11:44:04.988Z,6.94
2018-03-29T11:45:04.453Z,6.95
2018-03-29T11:46:04.958Z,6.97
2018-03-29T11:47:04.704Z,7
2018-03-29T11:48:04.933Z,7.03
2018-03-29T11:49:04.673Z,6.86
2018-03-29T11:50:04.649Z,6.85
2018-03-29T11:51:04.895Z,6.73
2018-03-29T11:52:04.366Z,6.49
2018-03-29T11:53:04.621Z,6.42
2018-03-29T11:54:04.598Z,6.14
2018-03-29T11:55:04.851Z,6.13
2018-03-29T11:56:04.585Z,6.07
2018-03-29T11:57:04.819Z,5.99
2018-03-29T11:58:04.547Z,6.02
2018-03-29T11:59:04.792Z,6.07
2018-03-29T12:00:04.783Z,6.13
2018-03-29T12:01:04.771Z,6.17
2018-03-29T12:02:04.765Z,6.29
2018-03-29T12:03:04.787Z,6.37
2018-03-29T12:04:04.735Z,6.39
2018-03-29T12:05:04.516Z,6.33
2018-03-29T12:06:04.445Z,6.24
2018-03-29T12:07:04.691Z,6.42
2018-03-29T12:08:04.419Z,6.37
2018-03-29T12:09:04.682Z,6.37
2018-03-29T12:10:04.141Z,6.29
2018-03-29T12:11:04.385Z,6.2
2018-03-29T12:12:04.632Z,6.14
2018-03-29T12:13:04.621Z,6.15
2018-03-29T12:14:04.083Z,6.06
2018-03-29T12:15:04.328Z,6.1
2018-03-29T12:16:04.585Z,6.1
2018-03-29T12:17:04.107Z,6.25
2018-03-29T12:18:04.290Z,6.29
2018-03-29T12:19:04.534Z,6.2
2018-03-29T12:20:04.267Z,6.46
2018-03-29T12:21:04.257Z,6.54
2018-03-29T12:22:04.496Z,6.43
2018-03-29T12:23:04.499Z,6.57
2018-03-29T12:24:04.212Z,6.6
2018-03-29T12:25:04.586Z,6.6
2018-03-29T12:26:04.461Z,6.65
2018-03-29T12:27:04.176Z,6.64
2018-03-29T12:28:04.420Z,6.76
2018-03-29T12:29:04.406Z,6.82
2018-03-29T12:30:04.137Z,6.85
2018-03-29T12:31:04.380Z,7
2018-03-29T12:32:04.114Z,7.01
2018-03-29T12:33:03.840Z,7
2018-03-29T12:34:04.087Z,7.08
2018-03-29T12:35:04.083Z,6.88
2018-03-29T12:36:04.089Z,6.82
2018-03-29T12:37:03.786Z,6.85
2018-03-29T12:38:04.297Z,6.85
2018-03-29T12:39:04.287Z,6.94
2018-03-29T12:40:04.007Z,6.82
2018-03-29T12:41:04.263Z,6.86
2018-03-29T12:42:04.246Z,6.93
2018-03-29T12:43:03.712Z,6.85
2018-03-29T12:44:04.226Z,6.91
2018-03-29T12:45:04.416Z,6.97
2018-03-29T12:46:04.191Z,7.09
2018-03-29T12:47:04.401Z,7.05
2018-03-29T12:48:04.166Z,7.05
2018-03-29T12:49:04.155Z,6.98
2018-03-29T12:50:03.881Z,6.97
2018-03-29T12:51:04.238Z,6.88
2018-03-29T12:52:04.125Z,6.91
2018-03-29T12:53:04.109Z,6.82
2018-03-29T12:54:03.898Z,6.79
2018-03-29T12:55:03.820Z,6.83
2018-03-29T12:56:03.548Z,6.83
2018-03-29T12:57:04.052Z,6.83
2018-03-29T12:58:03.784Z,6.9
2018-03-29T12:59:03.776Z,6.94
2018-03-29T13:00:03.757Z,6.88
2018-03-29T13:01:04.003Z,6.88
2018-03-29T13:02:03.731Z,7.03
2018-03-29T13:03:03.720Z,7.04
2018-03-29T13:04:03.964Z,7.05
2018-03-29T13:05:03.695Z,6.98
2018-03-29T13:06:04.087Z,7
2018-03-29T13:07:03.924Z,7.03
2018-03-29T13:08:03.657Z,7.01
2018-03-29T13:09:03.903Z,7.08
2018-03-29T13:10:03.634Z,6.91
2018-03-29T13:11:03.618Z,6.8
2018-03-29T13:12:03.871Z,6.76
2018-03-29T13:13:03.591Z,6.65
2018-03-29T13:14:03.842Z,6.65
2018-03-29T13:15:03.827Z,6.64
2018-03-29T13:16:03.819Z,6.65
2018-03-29T13:17:03.802Z,6.67
2018-03-29T13:18:03.531Z,6.65
2018-03-29T13:19:03.779Z,6.73
2018-03-29T13:20:03.510Z,6.7
2018-03-29T13:21:03.753Z,6.64
2018-03-29T13:22:03.745Z,6.8